createdAt,value
2019-06-01T00:00:21.650Z,2.70
2019-06-01T00:03:27.495Z,3.10
2019-06-01T00:06:32.355Z,2.50
2019-06-01T00:09:37.430Z,2.90
2019-06-01T00:12:43.271Z,2.40
2019-06-01T00:15:48.462Z,2.93
2019-06-01T00:18:53.547Z,2.60
2019-06-01T00:21:58.293Z,2.73
2019-06-01T00:25:03.202Z,2.63
2019-06-01T00:28:09.371Z,2.50
2019-06-01T00:31:14.127Z,2.40
2019-06-01T00:34:19.372Z,2.70
2019-06-01T00:37:24.361Z,2.67
2019-06-01T00:40:29.253Z,3.03
2019-06-01T00:43:35.065Z,2.90
2019-06-01T00:46:40.069Z,3.10
2019-06-01T00:49:44.909Z,3.03
2019-06-01T00:52:51.327Z,3.03
2019-06-01T00:55:56.217Z,2.97
2019-06-01T00:59:00.932Z,3.17
2019-06-01T01:02:05.830Z,3.33
2019-06-01T01:05:11.901Z,3.37
2019-06-01T01:08:16.724Z,2.63
2019-06-01T01:11:21.445Z,2.93
2019-06-01T01:14:26.506Z,2.83
2019-06-01T01:17:31.242Z,3.00
2019-06-01T01:20:37.029Z,2.70
2019-06-01T01:23:41.835Z,2.83
2019-06-01T01:26:46.897Z,2.83
2019-06-01T01:29:53.173Z,2.93
2019-06-01T01:32:59.440Z,2.67
2019-06-01T01:36:04.585Z,3.20
2019-06-01T01:39:09.973Z,3.37
2019-06-01T01:42:14.761Z,2.40
2019-06-01T01:45:19.629Z,2.80
2019-06-01T01:48:24.375Z,3.10
2019-06-01T01:51:29.098Z,2.93
2019-06-01T01:54:33.868Z,3.00
2019-06-01T01:57:39.678Z,2.83
2019-06-01T02:00:45.919Z,2.80
2019-06-01T02:03:51.665Z,2.80
2019-06-01T02:06:58.451Z,3.07
2019-06-01T02:10:03.630Z,2.83
2019-06-01T02:13:08.900Z,2.90
2019-06-01T02:16:15.323Z,2.83
2019-06-01T02:19:20.068Z,2.77
2019-06-01T02:22:25.119Z,3.10
2019-06-01T02:25:30.079Z,3.13
2019-06-01T02:28:34.886Z,2.53
2019-06-01T02:31:42.099Z,3.07
2019-06-01T02:34:46.058Z,3.00
2019-06-01T02:37:50.872Z,2.73
2019-06-01T02:40:57.007Z,2.70
2019-06-01T02:44:03.755Z,2.50
2019-06-01T02:47:08.577Z,3.00
2019-06-01T02:50:13.598Z,2.90
2019-06-01T02:53:18.389Z,2.90
2019-06-01T02:56:23.132Z,2.93
2019-06-01T02:59:27.853Z,2.90
2019-06-01T03:02:33.580Z,2.87
2019-06-01T03:05:39.202Z,3.03
2019-06-01T03:08:49.129Z,2.80
2019-06-01T03:11:55.720Z,2.97
2019-06-01T03:15:02.640Z,3.00
2019-06-01T03:18:09.457Z,2.83
2019-06-01T03:21:18.862Z,3.33
2019-06-01T03:24:25.855Z,3.13
2019-06-01T03:27:32.687Z,2.87
2019-06-01T03:30:45.204Z,2.87
2019-06-01T03:33:48.746Z,3.30
2019-06-01T03:36:56.292Z,2.80
2019-06-01T03:40:01.236Z,2.90
2019-06-01T03:43:07.256Z,2.80
2019-06-01T03:46:13.056Z,2.90
2019-06-01T03:49:17.859Z,3.20
2019-06-01T03:52:22.583Z,3.30
2019-06-01T03:55:27.350Z,2.80
2019-06-01T03:58:32.158Z,3.10
2019-06-01T04:01:36.914Z,3.33
2019-06-01T04:04:41.807Z,3.40
2019-06-01T04:07:46.822Z,3.50
2019-06-01T04:10:51.861Z,3.40
2019-06-01T04:13:56.625Z,3.60
2019-06-01T04:17:02.000Z,2.90
2019-06-01T04:20:08.243Z,3.17
2019-06-01T04:23:13.007Z,2.93
2019-06-01T04:26:18.112Z,3.13
2019-06-01T04:29:23.838Z,3.00
2019-06-01T04:32:28.707Z,3.17
2019-06-01T04:35:34.443Z,3.00
2019-06-01T04:38:39.539Z,3.33
2019-06-01T04:41:44.422Z,3.47
2019-06-01T04:44:49.246Z,3.33
2019-06-01T04:47:54.257Z,3.13
2019-06-01T04:50:59.245Z,3.20
2019-06-01T04:54:04.825Z,3.20
2019-06-01T04:57:11.011Z,3.10
2019-06-01T05:00:26.010Z,3.03
2019-06-01T05:03:22.927Z,3.00
2019-06-01T05:06:27.668Z,2.70
2019-06-01T05:09:32.679Z,3.20
2019-06-01T05:12:37.442Z,3.10
2019-06-01T05:15:42.454Z,2.80
2019-06-01T05:18:47.522Z,3.33
2019-06-01T05:21:52.250Z,2.50
2019-06-01T05:24:57.369Z,2.77
2019-06-01T05:28:02.237Z,2.90
2019-06-01T05:31:09.747Z,2.90
2019-06-01T05:34:14.116Z,2.90
2019-06-01T05:37:18.896Z,3.10
2019-06-01T05:40:23.748Z,2.70
2019-06-01T05:43:28.563Z,2.60
2019-06-01T05:46:33.363Z,2.70
2019-06-01T05:49:38.125Z,2.60
2019-06-01T05:52:42.909Z,2.43
2019-06-01T05:55:47.964Z,2.80
2019-06-01T05:58:53.541Z,2.30
2019-06-01T06:01:58.656Z,2.33
2019-06-01T06:05:03.658Z,2.40
2019-06-01T06:08:09.673Z,2.60
2019-06-01T06:11:14.943Z,2.40
2019-06-01T06:14:22.267Z,2.33
2019-06-01T06:17:26.974Z,2.67
2019-06-01T06:20:31.838Z,2.50
2019-06-01T06:23:36.665Z,2.50
2019-06-01T06:26:41.471Z,2.20
2019-06-01T06:29:46.455Z,2.50
2019-06-01T06:32:51.328Z,2.30
2019-06-01T06:35:57.290Z,2.10
2019-06-01T06:39:04.726Z,2.43
2019-06-01T06:42:09.019Z,2.40
2019-06-01T06:45:14.604Z,2.20
2019-06-01T06:48:21.180Z,2.40
2019-06-01T06:51:27.185Z,2.30
2019-06-01T06:54:32.893Z,2.20
2019-06-01T06:57:37.676Z,1.90
2019-06-01T07:00:42.473Z,2.00
2019-06-01T07:03:47.559Z,2.00
2019-06-01T07:06:52.345Z,1.90
2019-06-01T07:09:57.176Z,1.90
2019-06-01T07:13:02.591Z,1.73
2019-06-01T07:16:07.398Z,2.23
2019-06-01T07:19:12.201Z,1.97
2019-06-01T07:22:17.356Z,1.93
2019-06-01T07:25:22.555Z,2.03
2019-06-01T07:28:28.329Z,2.00
2019-06-01T07:31:33.143Z,1.80
2019-06-01T07:34:42.111Z,2.23
2019-06-01T07:37:44.750Z,1.73
2019-06-01T07:40:49.542Z,2.20
2019-06-01T07:43:54.346Z,2.10
2019-06-01T07:46:59.498Z,2.00
2019-06-01T07:50:05.052Z,1.80
2019-06-01T07:53:10.101Z,1.83
2019-06-01T07:56:14.978Z,1.80
2019-06-01T07:59:19.952Z,1.80
2019-06-01T08:02:26.244Z,1.83
2019-06-01T08:05:32.218Z,1.90
2019-06-01T08:08:37.123Z,2.07
2019-06-01T08:11:42.154Z,2.20
2019-06-01T08:14:46.983Z,1.90
2019-06-01T08:17:52.467Z,2.17
2019-06-01T08:20:57.661Z,2.20
2019-06-01T08:24:02.631Z,2.30
2019-06-01T08:27:07.555Z,1.90
2019-06-01T08:30:12.719Z,1.73
2019-06-01T08:33:17.561Z,1.50
2019-06-01T08:36:23.142Z,1.47
2019-06-01T08:39:29.464Z,1.63
2019-06-01T08:42:34.419Z,2.00
2019-06-01T08:45:39.294Z,1.70
2019-06-01T08:48:44.222Z,1.70
2019-06-01T08:51:49.083Z,1.60
2019-06-01T08:54:57.006Z,1.60
2019-06-01T08:58:01.851Z,1.40
2019-06-01T09:01:06.970Z,1.60
2019-06-01T09:04:11.889Z,1.80
2019-06-01T09:07:18.042Z,1.60
2019-06-01T09:10:22.892Z,1.70
2019-06-01T09:13:29.098Z,1.90
2019-06-01T09:16:35.937Z,1.50
2019-06-01T09:19:41.623Z,1.40
2019-06-01T09:22:48.151Z,1.60
2019-06-01T09:25:53.276Z,1.43
2019-06-01T09:28:58.424Z,1.33
2019-06-01T09:32:10.603Z,1.40
2019-06-01T09:35:12.645Z,1.20
2019-06-01T09:38:17.529Z,1.20
2019-06-01T09:41:22.709Z,1.40
2019-06-01T09:44:28.862Z,1.40
2019-06-01T09:47:34.007Z,1.77
2019-06-01T09:50:39.089Z,1.20
2019-06-01T09:53:43.862Z,1.20
2019-06-01T09:56:48.667Z,1.30
2019-06-01T09:59:53.450Z,1.30
2019-06-01T10:02:58.327Z,1.20
2019-06-01T10:06:03.345Z,1.40
2019-06-01T10:09:09.706Z,1.50
2019-06-01T10:12:14.611Z,1.17
2019-06-01T10:15:19.428Z,1.53
2019-06-01T10:18:26.903Z,1.33
2019-06-01T10:21:32.058Z,1.40
2019-06-01T10:24:37.315Z,1.50
2019-06-01T10:27:42.864Z,1.50
2019-06-01T10:30:48.748Z,1.43
2019-06-01T10:33:53.510Z,1.10
2019-06-01T10:36:58.297Z,1.17
2019-06-01T10:40:03.354Z,1.40
2019-06-01T10:43:08.578Z,1.30
2019-06-01T10:46:13.643Z,1.40
2019-06-01T10:49:18.898Z,1.27
2019-06-01T10:52:23.634Z,1.50
2019-06-01T10:55:28.469Z,1.40
2019-06-01T10:58:34.578Z,1.57
2019-06-01T11:01:40.922Z,1.40
2019-06-01T11:04:45.784Z,1.20
2019-06-01T11:07:50.596Z,1.33
2019-06-01T11:10:55.689Z,1.30
2019-06-01T11:14:01.874Z,1.50
2019-06-01T11:17:06.709Z,1.20
2019-06-01T11:20:12.185Z,1.30
2019-06-01T11:23:17.009Z,1.40
2019-06-01T11:26:22.080Z,1.30
2019-06-01T11:29:27.790Z,1.30
2019-06-01T11:32:33.673Z,1.13
2019-06-01T11:35:39.217Z,1.30
2019-06-01T11:38:44.869Z,1.37
2019-06-01T11:41:51.286Z,1.43
2019-06-01T11:44:56.405Z,1.27
2019-06-01T11:48:01.935Z,1.40
2019-06-01T11:51:06.820Z,1.33
2019-06-01T11:54:11.898Z,1.27
2019-06-01T11:57:17.064Z,1.57
2019-06-01T12:00:22.359Z,1.40
2019-06-01T12:03:27.109Z,1.40
2019-06-01T12:06:31.849Z,1.30
2019-06-01T12:09:37.717Z,1.40
2019-06-01T12:12:42.574Z,1.47
2019-06-01T12:15:47.692Z,1.50
2019-06-01T12:18:52.493Z,1.40
2019-06-01T12:21:57.680Z,1.43
2019-06-01T12:25:02.981Z,1.20
2019-06-01T12:28:07.985Z,1.30
2019-06-01T12:31:12.913Z,1.33
2019-06-01T12:34:17.972Z,1.40
2019-06-01T12:37:39.974Z,1.33
2019-06-01T12:40:29.937Z,1.40
2019-06-01T12:43:35.403Z,1.53
2019-06-01T12:46:41.618Z,1.60
2019-06-01T12:49:46.776Z,1.53
2019-06-01T12:52:52.638Z,1.30
2019-06-01T12:55:57.480Z,1.17
2019-06-01T12:59:02.270Z,1.20
2019-06-01T13:02:07.104Z,1.20
2019-06-01T13:05:12.823Z,1.20
2019-06-01T13:08:17.606Z,1.20
2019-06-01T13:11:22.337Z,1.13
2019-06-01T13:14:27.169Z,1.23
2019-06-01T13:17:31.974Z,1.07
2019-06-01T13:20:37.416Z,1.40
2019-06-01T13:23:43.414Z,1.20
2019-06-01T13:26:48.127Z,1.30
2019-06-01T13:29:55.359Z,1.20
2019-06-01T13:33:00.478Z,1.53
2019-06-01T13:36:05.382Z,1.30
2019-06-01T13:39:10.158Z,1.10
2019-06-01T13:42:15.520Z,1.00
2019-06-01T13:45:21.395Z,1.10
2019-06-01T13:48:26.171Z,1.00
2019-06-01T13:51:31.298Z,1.13
2019-06-01T13:54:40.020Z,1.43
2019-06-01T13:57:44.165Z,1.00
2019-06-01T14:00:49.193Z,0.93
2019-06-01T14:03:55.665Z,1.10
2019-06-01T14:07:00.583Z,1.10
2019-06-01T14:10:06.295Z,1.10
2019-06-01T14:13:11.446Z,1.10
2019-06-01T14:16:16.281Z,1.17
2019-06-01T14:19:21.042Z,1.20
2019-06-01T14:22:25.827Z,1.00
2019-06-01T14:25:30.541Z,1.20
2019-06-01T14:28:35.857Z,1.17
2019-06-01T14:31:40.690Z,1.40
2019-06-01T14:34:46.313Z,1.10
2019-06-01T14:37:52.011Z,1.10
2019-06-01T14:40:58.221Z,1.60
2019-06-01T14:44:03.071Z,1.40
2019-06-01T14:47:07.844Z,1.23
2019-06-01T14:50:12.852Z,1.30
2019-06-01T14:53:17.890Z,1.20
2019-06-01T14:56:22.622Z,1.10
2019-06-01T14:59:27.391Z,1.20
2019-06-01T15:02:32.297Z,1.10
2019-06-01T15:05:37.023Z,1.07
2019-06-01T15:08:42.317Z,1.10
2019-06-01T15:11:48.924Z,0.90
2019-06-01T15:14:55.472Z,1.00
2019-06-01T15:18:04.800Z,1.20
2019-06-01T15:21:07.528Z,1.00
2019-06-01T15:24:12.293Z,1.10
2019-06-01T15:27:17.197Z,1.00
2019-06-01T15:30:22.632Z,1.40
2019-06-01T15:33:28.105Z,1.00
2019-06-01T15:36:33.925Z,1.10
2019-06-01T15:39:38.980Z,1.00
2019-06-01T15:42:44.048Z,1.10
2019-06-01T15:45:49.213Z,1.13
2019-06-01T15:48:55.999Z,1.10
2019-06-01T15:52:02.052Z,0.90
2019-06-01T15:55:08.483Z,1.00
2019-06-01T15:58:13.827Z,0.90
2019-06-01T16:01:18.594Z,0.90
2019-06-01T16:04:23.413Z,0.93
2019-06-01T16:07:28.772Z,1.10
2019-06-01T16:10:33.562Z,1.10
2019-06-01T16:13:38.659Z,0.80
2019-06-01T16:16:43.772Z,1.10
2019-06-01T16:19:49.098Z,1.10
2019-06-01T16:22:55.930Z,1.00
2019-06-01T16:26:12.151Z,1.00
2019-06-01T16:29:08.215Z,1.10
2019-06-01T16:32:13.343Z,1.00
2019-06-01T16:35:18.473Z,1.07
2019-06-01T16:38:23.267Z,0.90
2019-06-01T16:41:28.115Z,1.60
2019-06-01T16:44:32.916Z,1.83
2019-06-01T16:47:38.243Z,1.20
2019-06-01T16:50:43.206Z,1.20
2019-06-01T16:53:48.076Z,2.17
2019-06-01T16:56:53.197Z,4.27
2019-06-01T16:59:58.450Z,4.23
2019-06-01T17:03:05.098Z,1.20
2019-06-01T17:06:11.220Z,1.00
2019-06-01T17:09:16.807Z,1.10
2019-06-01T17:12:21.576Z,1.20
2019-06-01T17:15:26.478Z,1.00
2019-06-01T17:18:31.395Z,1.20
2019-06-01T17:21:36.260Z,1.10
2019-06-01T17:24:41.243Z,1.20
2019-06-01T17:27:45.972Z,0.90
2019-06-01T17:30:51.353Z,1.00
2019-06-01T17:33:56.417Z,1.10
2019-06-01T17:37:01.219Z,1.20
2019-06-01T17:40:08.316Z,1.00
2019-06-01T17:43:13.650Z,1.20
2019-06-01T17:46:18.551Z,1.07
2019-06-01T17:49:23.785Z,1.10
2019-06-01T17:52:28.872Z,1.80
2019-06-01T17:55:35.730Z,1.70
2019-06-01T17:58:40.676Z,1.43
2019-06-01T18:01:46.469Z,1.50
2019-06-01T18:04:51.416Z,1.20
2019-06-01T18:07:56.328Z,1.20
2019-06-01T18:11:01.937Z,1.20
2019-06-01T18:14:08.769Z,1.10
2019-06-01T18:17:13.696Z,1.27
2019-06-01T18:20:18.942Z,1.20
2019-06-01T18:23:23.823Z,1.80
2019-06-01T18:26:28.745Z,1.70
2019-06-01T18:29:38.807Z,1.70
2019-06-01T18:32:41.858Z,1.60
2019-06-01T18:35:47.010Z,2.20
2019-06-01T18:38:52.122Z,4.20
2019-06-01T18:41:56.989Z,4.83
2019-06-01T18:45:01.913Z,2.33
2019-06-01T18:48:08.180Z,2.40
2019-06-01T18:51:14.456Z,1.90
2019-06-01T18:54:19.525Z,1.80
2019-06-01T18:57:24.348Z,2.10
2019-06-01T19:00:29.652Z,2.30
2019-06-01T19:03:34.524Z,2.47
2019-06-01T19:06:39.860Z,2.47
2019-06-01T19:09:44.719Z,2.37
2019-06-01T19:12:49.562Z,2.27
2019-06-01T19:15:54.405Z,2.30
2019-06-01T19:18:59.237Z,15.20
2019-06-01T19:22:04.157Z,8.07
2019-06-01T19:25:11.169Z,4.57
2019-06-01T19:28:17.506Z,7.40
2019-06-01T19:31:22.523Z,3.47
2019-06-01T19:34:27.466Z,2.47
2019-06-01T19:37:33.244Z,2.23
2019-06-01T19:40:39.462Z,2.37
2019-06-01T19:43:45.479Z,2.30
2019-06-01T19:46:51.945Z,2.30
2019-06-01T19:49:57.152Z,2.70
2019-06-01T19:53:03.230Z,2.20
2019-06-01T19:56:08.817Z,2.00
2019-06-01T19:59:13.893Z,2.27
2019-06-01T20:02:29.556Z,2.40
2019-06-01T20:05:26.247Z,2.17
2019-06-01T20:08:31.638Z,2.30
2019-06-01T20:11:36.453Z,2.40
2019-06-01T20:14:41.530Z,2.37
2019-06-01T20:17:46.398Z,2.23
2019-06-01T20:20:51.348Z,2.27
2019-06-01T20:23:56.427Z,2.30
2019-06-01T20:27:01.481Z,2.60
2019-06-01T20:30:07.309Z,2.77
2019-06-01T20:33:14.075Z,2.83
2019-06-01T20:36:20.236Z,2.70
2019-06-01T20:39:25.344Z,2.70
2019-06-01T20:42:32.856Z,4.37
2019-06-01T20:45:38.809Z,3.53
2019-06-01T20:48:44.752Z,3.23
2019-06-01T20:51:50.018Z,2.97
2019-06-01T20:54:55.110Z,3.00
2019-06-01T20:58:00.106Z,2.80
2019-06-01T21:01:05.114Z,2.50
2019-06-01T21:04:10.161Z,2.77
2019-06-01T21:07:15.748Z,2.50
2019-06-01T21:10:22.352Z,2.80
2019-06-01T21:13:27.475Z,2.80
2019-06-01T21:16:32.397Z,2.77
2019-06-01T21:19:37.601Z,3.03
2019-06-01T21:22:42.581Z,2.90
2019-06-01T21:25:47.640Z,2.87
2019-06-01T21:28:52.665Z,2.87
2019-06-01T21:31:57.757Z,2.90
2019-06-01T21:35:03.693Z,2.90
2019-06-01T21:38:08.455Z,2.30
2019-06-01T21:41:13.298Z,2.83
2019-06-01T21:44:18.138Z,2.70
2019-06-01T21:47:23.832Z,3.17
2019-06-01T21:50:28.725Z,2.87
2019-06-01T21:53:33.488Z,2.90
2019-06-01T21:56:38.307Z,2.73
2019-06-01T21:59:43.063Z,2.60
2019-06-01T22:02:47.950Z,2.90
2019-06-01T22:05:52.833Z,2.93
2019-06-01T22:08:57.699Z,2.70
2019-06-01T22:12:03.049Z,2.83
2019-06-01T22:15:07.980Z,2.50
2019-06-01T22:18:12.831Z,2.70
2019-06-01T22:21:17.700Z,3.10
2019-06-01T22:24:23.843Z,2.80
2019-06-01T22:27:29.300Z,2.80
2019-06-01T22:30:34.544Z,2.60
2019-06-01T22:33:39.371Z,2.50
2019-06-01T22:36:44.179Z,2.47
2019-06-01T22:39:49.058Z,2.50
2019-06-01T22:42:54.224Z,2.70
2019-06-01T22:46:00.674Z,2.73
2019-06-01T22:49:06.665Z,2.93
2019-06-01T22:52:11.510Z,2.37
2019-06-01T22:55:16.854Z,2.90
2019-06-01T22:58:23.204Z,2.50
2019-06-01T23:01:28.801Z,2.57
2019-06-01T23:04:33.864Z,2.50
2019-06-01T23:07:39.699Z,2.30
2019-06-01T23:10:44.845Z,2.30
2019-06-01T23:13:53.308Z,2.60
2019-06-01T23:16:56.188Z,2.90
2019-06-01T23:20:01.274Z,2.90
2019-06-01T23:23:06.370Z,2.60
2019-06-01T23:26:11.427Z,2.47
2019-06-01T23:29:16.482Z,2.30
2019-06-01T23:32:22.388Z,2.27
2019-06-01T23:35:28.602Z,2.23
2019-06-01T23:38:33.527Z,2.03
2019-06-01T23:41:38.555Z,2.27
2019-06-01T23:44:43.304Z,2.50
2019-06-01T23:47:48.058Z,2.37
2019-06-01T23:50:52.820Z,2.10
2019-06-01T23:53:57.937Z,2.27
2019-06-01T23:57:02.710Z,2.13
